Portada
METAR-TAF:

METAR-TAF

Aeroports :

N'Djamena, Txad

latitud: 12-08N, longitud: 015-02E, altitud: 295 m

Observació

L'informe es va fer fa 24 minuts, a les 03:00 UTC
Vent 4 kt del Nord
Temperatura 25°C
Humitat 18%
Pressió 1004 hPa
Visibilitat 10 km o més
sense núvols per sota de 1500 mi sense presència de cumulonimbus.

METAR: FTTJ 210300Z 36004KT CAVOK 25/M01 Q1004 NOSIG

Hora: 04:24 (03:24 UTC)

Pronòstic

L'informe es va fer fa 4 hores i 24 minuts, a les 23:00 UTC
Pronòstic vàlid del 21 a les 00 UTC al 22 a les 06 UTC
Vent 4 kt amb direcció variable
Visibilitat: 6000 m
Temporalment
l' 21 a les 02 UTC al 21 a les 06 UTC
Visibilitat: 4000 m
Pols estès
Temporalment
l' 21 a les 07 UTC al 21 a les 13 UTC
Vent 14 kt del Nord-Est

TAF: FTTJ 202300Z 2100/2206 VRB04KT 6000 NSC TEMPO 2102/2106 4000 DU TEMPO 2107/2113 04014KT

Observacions i pronòstics meteorològics de més de 4000 aeroports (METAR i TAF).

Les estacions disponibles són els punts grocs i vermells al mapa.

Posi el ratolí al punt desitjat per veure el nom de l'estació.

Feu clic per veure les observacions i els pronòstics meteorològics.

Per canviar el mapa: feu clic els botons verds amb una creu de color negre per apropar; al botó verd amb un guió per allunyar la imatge; o en les fletxes verdes per a mapes adjacents.


METAR-TAF: